createdAt,value
2019-04-29T00:02:37.023Z,3.02
2019-04-29T00:05:26.154Z,2.72
2019-04-29T00:08:15.344Z,3.00
2019-04-29T00:11:05.697Z,3.15
2019-04-29T00:13:55.128Z,2.52
2019-04-29T00:17:03.993Z,2.90
2019-04-29T00:20:05.367Z,2.62
2019-04-29T00:22:54.543Z,3.10
2019-04-29T00:25:43.930Z,2.52
2019-04-29T00:28:33.049Z,2.58
2019-04-29T00:31:22.931Z,2.80
2019-04-29T00:34:12.705Z,2.37
2019-04-29T00:37:08.748Z,2.62
2019-04-29T00:40:15.617Z,2.50
2019-04-29T00:43:18.728Z,3.02
2019-04-29T00:46:07.905Z,3.08
2019-04-29T00:48:57.280Z,2.58
2019-04-29T00:51:46.521Z,2.50
2019-04-29T00:54:41.814Z,2.65
2019-04-29T00:57:31.153Z,2.90
2019-04-29T01:00:41.176Z,2.77
2019-04-29T01:03:30.333Z,2.80
2019-04-29T01:06:19.909Z,2.80
2019-04-29T01:09:11.054Z,2.72
2019-04-29T01:12:00.567Z,2.90
2019-04-29T01:14:50.308Z,2.62
2019-04-29T01:17:40.008Z,3.00
2019-04-29T01:20:29.984Z,2.75
2019-04-29T01:23:19.115Z,2.80
2019-04-29T01:26:34.042Z,2.70
2019-04-29T01:29:24.439Z,3.00
2019-04-29T01:32:14.316Z,2.70
2019-04-29T01:35:04.466Z,2.60
2019-04-29T01:37:53.847Z,2.92
2019-04-29T01:41:01.720Z,2.52
2019-04-29T01:44:07.622Z,2.80
2019-04-29T01:46:57.281Z,2.53
2019-04-29T01:49:46.158Z,2.85
2019-04-29T01:52:35.752Z,2.85
2019-04-29T01:55:25.371Z,2.87
2019-04-29T01:58:15.595Z,2.40
2019-04-29T02:01:04.639Z,3.00
2019-04-29T02:03:54.399Z,2.95
2019-04-29T02:06:44.351Z,2.75
2019-04-29T02:09:39.180Z,2.60
2019-04-29T02:12:28.749Z,2.72
2019-04-29T02:15:18.461Z,2.98
2019-04-29T02:18:08.051Z,2.90
2019-04-29T02:20:59.134Z,2.83
2019-04-29T02:24:02.061Z,3.27
2019-04-29T02:26:51.587Z,2.90
2019-04-29T02:29:41.304Z,2.87
2019-04-29T02:32:30.421Z,3.10
2019-04-29T02:35:19.936Z,3.27
2019-04-29T02:38:11.701Z,3.10
2019-04-29T02:41:20.615Z,2.83
2019-04-29T02:44:11.675Z,3.22
2019-04-29T02:47:01.145Z,3.40
2019-04-29T02:49:50.979Z,3.33
2019-04-29T02:52:40.012Z,3.33
2019-04-29T02:55:33.682Z,3.00
2019-04-29T02:58:32.784Z,3.00
2019-04-29T03:01:41.132Z,2.85
2019-04-29T03:04:34.385Z,2.87
2019-04-29T03:07:24.152Z,3.37
2019-04-29T03:10:13.220Z,3.52
2019-04-29T03:13:02.889Z,3.10
2019-04-29T03:15:52.239Z,3.10
2019-04-29T03:18:46.669Z,3.10
2019-04-29T03:21:47.609Z,3.55
2019-04-29T03:24:36.776Z,3.17
2019-04-29T03:27:26.470Z,3.35
2019-04-29T03:30:17.551Z,3.30
2019-04-29T03:33:06.544Z,2.92
2019-04-29T03:35:55.736Z,3.47
2019-04-29T03:38:45.095Z,3.40
2019-04-29T03:41:34.910Z,3.20
2019-04-29T03:44:24.539Z,3.83
2019-04-29T03:47:13.411Z,3.47
2019-04-29T03:50:03.081Z,3.77
2019-04-29T03:52:52.341Z,3.70
2019-04-29T03:55:41.881Z,3.50
2019-04-29T03:58:31.771Z,3.33
2019-04-29T04:01:29.400Z,3.35
2019-04-29T04:04:36.448Z,3.80
2019-04-29T04:10:39.542Z,3.60
2019-04-29T04:13:29.250Z,3.55
2019-04-29T04:16:29.085Z,3.87
2019-04-29T04:19:18.782Z,4.00
2019-04-29T04:22:07.929Z,3.70
2019-04-29T04:24:57.355Z,3.80
2019-04-29T04:27:46.789Z,3.90
2019-04-29T04:30:36.144Z,4.45
2019-04-29T04:33:26.069Z,4.70
2019-04-29T04:36:16.225Z,4.08
2019-04-29T04:39:07.565Z,4.08
2019-04-29T04:41:57.669Z,4.05
2019-04-29T04:44:50.551Z,3.85
2019-04-29T04:47:40.157Z,4.55
2019-04-29T04:50:29.511Z,4.87
2019-04-29T04:53:18.742Z,4.75
2019-04-29T04:56:08.328Z,4.97
2019-04-29T04:58:58.598Z,5.90
2019-04-29T05:01:48.449Z,6.00
2019-04-29T05:04:37.521Z,5.90
2019-04-29T05:07:26.456Z,5.45
2019-04-29T05:10:16.065Z,5.92
2019-04-29T05:13:05.235Z,5.87
2019-04-29T05:15:54.878Z,5.10
2019-04-29T05:18:44.470Z,5.10
2019-04-29T05:21:33.307Z,5.20
2019-04-29T05:24:22.974Z,5.10
2019-04-29T05:27:11.955Z,4.65
2019-04-29T05:30:01.438Z,4.92
2019-04-29T05:32:50.624Z,5.08
2019-04-29T05:36:04.456Z,4.78
2019-04-29T05:39:12.649Z,5.30
2019-04-29T05:42:02.252Z,4.87
2019-04-29T05:45:00.389Z,5.53
2019-04-29T05:47:58.418Z,4.97
2019-04-29T05:50:53.936Z,4.90
2019-04-29T05:53:47.304Z,5.35
2019-04-29T05:56:37.570Z,5.15
2019-04-29T05:59:26.601Z,5.40
2019-04-29T06:02:16.359Z,4.95
2019-04-29T06:05:06.102Z,4.65
2019-04-29T06:07:56.265Z,5.15
2019-04-29T06:10:46.971Z,5.20
2019-04-29T06:13:36.255Z,5.60
2019-04-29T06:16:26.212Z,5.10
2019-04-29T06:19:16.037Z,5.03
2019-04-29T06:22:04.766Z,4.83
2019-04-29T06:24:53.971Z,5.67
2019-04-29T06:27:43.819Z,5.25
2019-04-29T06:30:33.208Z,5.40
2019-04-29T06:33:24.225Z,5.22
2019-04-29T06:36:13.688Z,5.65
2019-04-29T06:39:05.547Z,5.40
2019-04-29T06:41:55.332Z,4.58
2019-04-29T06:44:49.001Z,4.58
2019-04-29T06:47:35.531Z,5.10
2019-04-29T06:50:24.583Z,5.00
2019-04-29T06:53:16.445Z,4.67
2019-04-29T06:56:04.597Z,5.15
2019-04-29T06:58:53.914Z,5.60
2019-04-29T07:01:43.651Z,5.55
2019-04-29T07:04:38.471Z,5.05
2019-04-29T07:07:24.242Z,5.47
2019-04-29T07:10:21.281Z,6.15
2019-04-29T07:13:17.919Z,5.72
2019-04-29T07:16:06.155Z,6.80
2019-04-29T07:18:55.924Z,5.47
2019-04-29T07:21:46.907Z,6.30
2019-04-29T07:24:38.433Z,6.87
2019-04-29T07:27:30.065Z,6.53
2019-04-29T07:30:21.815Z,5.97
2019-04-29T07:33:11.995Z,6.37
2019-04-29T07:36:10.799Z,6.58
2019-04-29T07:38:57.401Z,7.17
2019-04-29T07:41:49.491Z,6.80
2019-04-29T07:44:52.834Z,6.95
2019-04-29T07:47:41.442Z,6.87
2019-04-29T07:50:31.660Z,6.87
2019-04-29T07:53:35.062Z,6.83
2019-04-29T07:56:16.931Z,5.97
2019-04-29T07:59:07.218Z,7.00
2019-04-29T08:01:59.757Z,6.00
2019-04-29T08:04:47.265Z,5.58
2019-04-29T08:07:36.273Z,5.97
2019-04-29T08:10:28.611Z,6.20
2019-04-29T08:13:16.441Z,5.42
2019-04-29T08:16:05.944Z,5.35
2019-04-29T08:18:55.588Z,5.75
2019-04-29T08:21:45.548Z,5.65
2019-04-29T08:24:37.518Z,5.53
2019-04-29T08:27:39.212Z,4.62
2019-04-29T08:30:18.384Z,5.05
2019-04-29T08:33:12.001Z,4.87
2019-04-29T08:35:58.894Z,4.47
2019-04-29T08:38:48.321Z,4.17
2019-04-29T08:41:37.237Z,3.83
2019-04-29T08:44:47.189Z,3.72
2019-04-29T08:47:39.061Z,3.20
2019-04-29T08:50:28.389Z,3.55
2019-04-29T08:53:17.128Z,3.50
2019-04-29T08:56:10.357Z,3.30
2019-04-29T08:58:57.513Z,3.27
2019-04-29T09:01:47.074Z,3.85
2019-04-29T09:04:36.511Z,3.55
2019-04-29T09:07:25.797Z,2.72
2019-04-29T09:10:15.074Z,3.15
2019-04-29T09:13:04.634Z,3.40
2019-04-29T09:15:54.272Z,3.42
2019-04-29T09:18:43.690Z,3.20
2019-04-29T09:21:33.434Z,3.10
2019-04-29T09:24:22.211Z,3.35
2019-04-29T09:27:16.407Z,3.02
2019-04-29T09:30:06.442Z,3.12
2019-04-29T09:32:55.859Z,3.25
2019-04-29T09:35:45.991Z,3.00
2019-04-29T09:38:36.878Z,2.37
2019-04-29T09:41:45.868Z,2.50
2019-04-29T09:44:56.816Z,2.10
2019-04-29T09:47:45.802Z,1.70
2019-04-29T09:50:39.220Z,1.57
2019-04-29T09:53:26.778Z,1.30
2019-04-29T09:56:17.520Z,1.27
2019-04-29T09:59:25.845Z,1.00
2019-04-29T10:02:40.719Z,0.90
2019-04-29T10:05:34.659Z,1.00
2019-04-29T10:08:24.715Z,1.10
2019-04-29T10:11:14.058Z,1.37
2019-04-29T10:14:03.389Z,1.27
2019-04-29T10:17:11.166Z,1.50
2019-04-29T10:20:22.319Z,1.50
2019-04-29T10:23:14.930Z,1.17
2019-04-29T10:26:04.808Z,1.20
2019-04-29T10:29:03.331Z,1.50
2019-04-29T10:31:52.916Z,1.15
2019-04-29T10:34:43.201Z,1.72
2019-04-29T10:37:34.197Z,1.40
2019-04-29T10:40:50.028Z,1.30
2019-04-29T10:44:04.720Z,1.67
2019-04-29T10:47:01.400Z,1.57
2019-04-29T10:49:57.171Z,1.12
2019-04-29T10:52:46.516Z,1.40
2019-04-29T10:55:35.650Z,1.50
2019-04-29T10:58:29.877Z,1.20
2019-04-29T11:02:01.128Z,1.12
2019-04-29T11:04:46.204Z,1.10
2019-04-29T11:07:38.741Z,1.45
2019-04-29T11:10:32.069Z,1.40
2019-04-29T11:13:21.702Z,1.32
2019-04-29T11:16:12.713Z,1.12
2019-04-29T11:19:05.358Z,1.00
2019-04-29T11:21:53.861Z,1.42
2019-04-29T11:25:03.850Z,0.95
2019-04-29T11:27:56.220Z,0.85
2019-04-29T11:30:45.738Z,1.00
2019-04-29T11:33:51.307Z,0.85
2019-04-29T11:36:43.962Z,0.70
2019-04-29T11:39:31.604Z,0.98
2019-04-29T11:42:21.048Z,0.80
2019-04-29T11:45:13.724Z,1.00
2019-04-29T11:48:03.662Z,0.90
2019-04-29T11:51:01.336Z,1.00
2019-04-29T11:53:52.710Z,0.75
2019-04-29T11:56:43.686Z,0.90
2019-04-29T11:59:51.802Z,0.80
2019-04-29T12:02:48.487Z,0.95
2019-04-29T12:05:44.809Z,0.68
2019-04-29T12:11:27.872Z,0.80
2019-04-29T12:14:21.350Z,0.70
2019-04-29T12:17:20.943Z,0.90
2019-04-29T12:20:25.829Z,0.98
2019-04-29T12:23:15.809Z,0.88
2019-04-29T12:26:06.593Z,0.95
2019-04-29T12:28:55.869Z,1.20
2019-04-29T12:31:52.325Z,0.93
2019-04-29T12:38:10.512Z,1.07
2019-04-29T12:41:19.692Z,1.20
2019-04-29T12:44:06.940Z,1.20
2019-04-29T12:47:04.030Z,0.98
2019-04-29T12:49:53.409Z,1.20
2019-04-29T12:52:42.503Z,0.90
2019-04-29T12:55:45.204Z,1.40
2019-04-29T12:58:29.115Z,1.20
2019-04-29T13:01:50.168Z,1.10
2019-04-29T13:04:49.743Z,1.12
2019-04-29T13:07:52.932Z,1.20
2019-04-29T13:10:48.371Z,1.10
2019-04-29T13:13:37.321Z,1.20
2019-04-29T13:16:50.844Z,1.60
2019-04-29T13:19:47.310Z,1.30
2019-04-29T13:22:36.143Z,1.35
2019-04-29T13:25:26.901Z,0.90
2019-04-29T13:28:29.482Z,1.10
2019-04-29T13:31:09.451Z,0.80
2019-04-29T13:34:08.972Z,1.27
2019-04-29T13:37:06.028Z,1.00
2019-04-29T13:39:42.498Z,1.10
2019-04-29T13:42:31.258Z,0.88
2019-04-29T13:45:26.454Z,0.95
2019-04-29T13:48:23.628Z,0.88
2019-04-29T13:51:34.781Z,1.17
2019-04-29T13:54:08.725Z,1.07
2019-04-29T13:57:08.638Z,1.20
2019-04-29T14:00:02.858Z,1.12
2019-04-29T14:02:59.101Z,1.27
2019-04-29T14:05:48.802Z,1.30
2019-04-29T14:08:38.413Z,1.90
2019-04-29T14:11:27.835Z,1.95
2019-04-29T14:14:18.023Z,1.90
2019-04-29T14:17:25.332Z,1.45
2019-04-29T14:20:00.627Z,1.80
2019-04-29T14:22:50.713Z,1.60
2019-04-29T14:25:40.067Z,1.80
2019-04-29T14:28:29.537Z,1.80
2019-04-29T14:31:22.494Z,1.77
2019-04-29T14:34:20.267Z,1.85
2019-04-29T14:37:21.169Z,1.85
2019-04-29T14:40:02.742Z,2.20
2019-04-29T14:43:25.796Z,1.60
2019-04-29T14:46:27.170Z,1.90
2019-04-29T14:49:23.334Z,2.45
2019-04-29T14:52:13.257Z,2.00
2019-04-29T14:55:03.854Z,2.25
2019-04-29T14:57:52.623Z,1.95
2019-04-29T15:01:03.512Z,2.20
2019-04-29T15:04:18.576Z,2.08
2019-04-29T15:07:02.833Z,2.00
2019-04-29T15:09:55.774Z,1.70
2019-04-29T15:13:01.439Z,1.82
2019-04-29T15:16:09.615Z,1.60
2019-04-29T15:19:04.147Z,1.90
2019-04-29T15:21:58.456Z,2.00
2019-04-29T15:24:47.255Z,2.00
2019-04-29T15:27:36.767Z,1.85
2019-04-29T15:30:26.359Z,1.77
2019-04-29T15:33:15.102Z,2.20
2019-04-29T15:36:04.353Z,2.50
2019-04-29T15:39:09.131Z,2.42
2019-04-29T15:41:44.573Z,2.40
2019-04-29T15:44:34.176Z,2.10
2019-04-29T15:47:27.761Z,2.30
2019-04-29T15:50:18.675Z,2.58
2019-04-29T15:53:05.893Z,2.30
2019-04-29T15:56:06.500Z,2.58
2019-04-29T15:58:47.548Z,2.80
2019-04-29T16:01:41.003Z,2.47
2019-04-29T16:04:33.642Z,2.60
2019-04-29T16:07:51.571Z,2.67
2019-04-29T16:11:01.539Z,2.02
2019-04-29T16:14:08.383Z,2.27
2019-04-29T16:16:40.965Z,1.98
2019-04-29T16:19:31.032Z,3.20
2019-04-29T16:22:22.275Z,2.45
2019-04-29T16:25:12.971Z,3.08
2019-04-29T16:28:02.175Z,2.70
2019-04-29T16:30:51.809Z,2.75
2019-04-29T16:33:41.119Z,2.47
2019-04-29T16:36:30.380Z,2.25
2019-04-29T16:39:20.119Z,2.35
2019-04-29T16:42:26.936Z,2.30
2019-04-29T16:45:16.692Z,2.05
2019-04-29T16:48:06.234Z,2.10
2019-04-29T16:50:55.888Z,2.50
2019-04-29T16:53:45.357Z,2.12
2019-04-29T16:56:34.660Z,2.90
2019-04-29T16:59:23.424Z,2.72
2019-04-29T17:02:19.095Z,3.05
2019-04-29T17:05:06.895Z,3.12
2019-04-29T17:07:56.732Z,2.60
2019-04-29T17:10:53.126Z,2.80
2019-04-29T17:13:42.456Z,2.77
2019-04-29T17:16:32.286Z,2.70
2019-04-29T17:19:21.413Z,3.00
2019-04-29T17:22:25.343Z,2.30
2019-04-29T17:25:01.596Z,2.62
2019-04-29T17:27:57.821Z,2.30
2019-04-29T17:31:11.707Z,2.10
2019-04-29T17:33:59.615Z,1.82
2019-04-29T17:36:50.265Z,1.90
2019-04-29T17:39:39.348Z,1.80
2019-04-29T17:42:30.708Z,1.77
2019-04-29T17:45:30.770Z,2.30
2019-04-29T17:48:29.890Z,1.72
2019-04-29T17:51:19.630Z,1.75
2019-04-29T17:54:10.844Z,1.98
2019-04-29T17:57:31.459Z,2.20
2019-04-29T18:00:43.876Z,2.33
2019-04-29T18:03:42.890Z,2.15
2019-04-29T18:06:35.746Z,2.35
2019-04-29T18:09:36.511Z,2.20
2019-04-29T18:12:26.089Z,2.47
2019-04-29T18:15:20.072Z,2.70
2019-04-29T18:18:16.972Z,2.87
2019-04-29T18:21:43.549Z,2.60
2019-04-29T18:24:57.367Z,3.02
2019-04-29T18:27:49.106Z,3.02
2019-04-29T18:30:38.554Z,3.27
2019-04-29T18:33:30.181Z,3.25
2019-04-29T18:36:23.630Z,3.37
2019-04-29T18:39:10.996Z,3.02
2019-04-29T18:42:03.113Z,3.22
2019-04-29T18:44:59.389Z,2.85
2019-04-29T18:47:41.886Z,3.17
2019-04-29T18:50:34.199Z,2.98
2019-04-29T18:53:22.862Z,3.12
2019-04-29T18:56:12.615Z,2.90
2019-04-29T18:59:02.946Z,3.00
2019-04-29T19:01:54.806Z,2.77
2019-04-29T19:05:09.225Z,3.02
2019-04-29T19:08:11.479Z,3.42
2019-04-29T19:10:51.327Z,2.60
2019-04-29T19:13:43.564Z,2.60
2019-04-29T19:16:32.399Z,2.50
2019-04-29T19:19:21.580Z,2.50
2019-04-29T19:22:11.316Z,2.37
2019-04-29T19:25:08.677Z,2.47
2019-04-29T19:27:57.740Z,2.22
2019-04-29T19:30:47.160Z,2.10
2019-04-29T19:33:39.300Z,2.20
2019-04-29T19:36:27.413Z,2.00
2019-04-29T19:39:21.187Z,2.10
2019-04-29T19:42:07.699Z,2.08
2019-04-29T19:44:57.446Z,2.30
2019-04-29T19:47:53.056Z,1.80
2019-04-29T19:50:38.808Z,2.02
2019-04-29T19:53:28.183Z,2.33
2019-04-29T19:56:23.177Z,1.80
2019-04-29T19:59:13.462Z,2.10
2019-04-29T20:02:05.517Z,2.25
2019-04-29T20:05:10.953Z,1.87
2019-04-29T20:08:01.062Z,2.30
2019-04-29T20:10:52.571Z,2.12
2019-04-29T20:13:58.255Z,1.80
2019-04-29T20:16:57.364Z,1.90
2019-04-29T20:19:58.674Z,2.00
2019-04-29T20:22:46.305Z,1.85
2019-04-29T20:25:38.046Z,2.12
2019-04-29T20:28:25.893Z,1.82
2019-04-29T20:31:21.700Z,1.60
2019-04-29T20:34:07.792Z,1.77
2019-04-29T20:36:57.804Z,1.72
2019-04-29T20:39:47.615Z,1.77
2019-04-29T20:42:40.396Z,1.35
2019-04-29T20:45:31.243Z,1.70
2019-04-29T20:48:21.243Z,1.60
2019-04-29T20:51:13.719Z,1.57
2019-04-29T20:54:16.010Z,1.60
2019-04-29T20:57:04.895Z,1.30
2019-04-29T20:59:51.982Z,1.40
2019-04-29T21:02:42.244Z,1.37
2019-04-29T21:05:32.411Z,1.50
2019-04-29T21:08:22.031Z,1.30
2019-04-29T21:11:21.075Z,1.80
2019-04-29T21:14:35.932Z,1.67
2019-04-29T21:17:30.688Z,1.60
2019-04-29T21:20:17.164Z,1.85
2019-04-29T21:23:06.679Z,1.90
2019-04-29T21:26:00.565Z,1.60
2019-04-29T21:28:47.144Z,1.67
2019-04-29T21:31:36.488Z,1.60
2019-04-29T21:34:29.665Z,1.82
2019-04-29T21:37:48.058Z,1.60
2019-04-29T21:40:42.232Z,1.80
2019-04-29T21:43:35.439Z,1.60
2019-04-29T21:46:28.360Z,2.02
2019-04-29T21:49:15.590Z,2.00
2019-04-29T21:52:07.541Z,1.75
2019-04-29T21:54:57.396Z,1.90
2019-04-29T21:57:47.720Z,2.00
2019-04-29T22:00:38.777Z,1.70
2019-04-29T22:03:28.064Z,1.90
2019-04-29T22:06:17.715Z,1.60
2019-04-29T22:09:08.547Z,1.62
2019-04-29T22:11:57.604Z,1.85
2019-04-29T22:14:52.479Z,2.00
2019-04-29T22:17:38.153Z,1.90
2019-04-29T22:20:28.226Z,2.00
2019-04-29T22:23:17.924Z,2.10
2019-04-29T22:26:06.819Z,2.20
2019-04-29T22:29:01.818Z,2.52
2019-04-29T22:31:46.839Z,2.37
2019-04-29T22:34:36.262Z,2.52
2019-04-29T22:37:25.549Z,2.30
2019-04-29T22:40:15.415Z,2.75
2019-04-29T22:43:14.265Z,2.33
2019-04-29T22:46:04.722Z,2.80
2019-04-29T22:48:55.719Z,2.17
2019-04-29T22:51:45.643Z,2.50
2019-04-29T22:54:37.899Z,1.90
2019-04-29T22:57:31.529Z,2.27
2019-04-29T23:00:21.599Z,2.42
2019-04-29T23:03:11.028Z,2.40
2019-04-29T23:06:04.103Z,2.30
2019-04-29T23:08:50.969Z,2.47
2019-04-29T23:11:40.908Z,2.25
2019-04-29T23:14:30.835Z,2.75
2019-04-29T23:17:20.166Z,2.62
2019-04-29T23:20:25.473Z,2.60
2019-04-29T23:23:18.082Z,2.72
2019-04-29T23:26:07.484Z,2.50
2019-04-29T23:28:59.418Z,2.62
2019-04-29T23:31:48.169Z,2.65
2019-04-29T23:34:37.407Z,2.70
2019-04-29T23:37:27.629Z,2.80
2019-04-29T23:40:18.256Z,3.00
2019-04-29T23:43:07.599Z,3.62
2019-04-29T23:46:00.482Z,2.80
2019-04-29T23:48:48.107Z,3.47
2019-04-29T23:51:37.842Z,4.00
2019-04-29T23:54:30.551Z,3.80
2019-04-29T23:57:27.167Z,4.03
